Time;durP1;ratioP1;P1;durP2;ratioP2;P2;SDS_P1;SDS_P2;PMS_P1;PMS_P2;Temp;Humidity;BMP_temperature;BMP_pressure;BME280_temperature;BME280_humidity;BME280_pressure;Samples;Min_cycle;Max_cycle;Signal;HPM_P1;HPM_P2
2022/03/08 00:01:59;;;;;;;27.38;16.38;;;10.00;42.60;;;;;;5120222;28;20024;-66
2022/03/08 00:04:27;;;;;;;23.75;15.18;;;10.00;42.50;;;;;;5120200;28;20054;-66
2022/03/08 00:06:54;;;;;;;28.25;16.50;;;10.00;42.40;;;;;;5120167;28;20029;-66
2022/03/08 00:09:20;;;;;;;23.58;14.98;;;10.00;42.50;;;;;;5118964;28;20031;-66
2022/03/08 00:11:46;;;;;;;24.50;14.93;;;10.00;42.50;;;;;;5118821;28;20024;-67
2022/03/08 00:14:12;;;;;;;24.33;15.98;;;10.00;42.40;;;;;;5120157;28;20149;-68
2022/03/08 00:16:37;;;;;;;24.25;14.93;;;10.00;42.30;;;;;;5120165;28;20023;-67
2022/03/08 00:19:03;;;;;;;25.38;15.15;;;10.00;42.50;;;;;;5119956;28;20023;-66
2022/03/08 00:21:29;;;;;;;26.33;15.57;;;10.00;42.60;;;;;;5122441;28;20122;-67
2022/03/08 00:23:55;;;;;;;23.58;15.18;;;10.00;42.40;;;;;;5122473;28;20086;-66
2022/03/08 00:26:22;;;;;;;20.75;14.32;;;10.00;42.50;;;;;;5123765;28;20019;-68
2022/03/08 00:28:48;;;;;;;23.65;15.57;;;9.90;42.40;;;;;;5123806;28;20023;-69
2022/03/08 00:31:13;;;;;;;25.65;15.32;;;9.90;42.30;;;;;;5123620;28;20019;-67
2022/03/08 00:33:41;;;;;;;22.83;14.82;;;9.90;42.40;;;;;;5123739;28;20054;-67
2022/03/08 00:36:07;;;;;;;23.67;14.77;;;9.90;42.30;;;;;;5123649;28;20047;-66
2022/03/08 00:38:33;;;;;;;24.60;13.60;;;9.90;42.20;;;;;;5123300;28;20076;-67
2022/03/08 00:41:00;;;;;;;21.92;13.68;;;9.90;42.50;;;;;;5123553;28;20081;-67
2022/03/08 00:43:26;;;;;;;22.27;13.73;;;9.90;42.20;;;;;;5123492;28;20035;-68
2022/03/08 00:45:52;;;;;;;24.33;14.80;;;9.90;42.50;;;;;;5123490;28;20039;-67
2022/03/08 00:48:18;;;;;;;21.35;13.73;;;9.90;42.50;;;;;;5123495;28;20220;-67
2022/03/08 00:50:44;;;;;;;24.98;14.75;;;9.90;42.50;;;;;;5123296;28;20027;-67
2022/03/08 00:53:10;;;;;;;22.38;13.82;;;9.90;42.40;;;;;;5123338;28;20084;-67
2022/03/08 00:55:36;;;;;;;25.42;14.45;;;9.90;42.20;;;;;;5123228;28;20028;-67
2022/03/08 00:58:04;;;;;;;21.48;13.55;;;9.90;42.50;;;;;;5123080;28;20042;-66
2022/03/08 01:00:31;;;;;;;22.47;14.40;;;9.90;42.30;;;;;;5123219;28;20350;-67
2022/03/08 01:02:57;;;;;;;29.23;15.02;;;9.90;42.30;;;;;;5123172;28;20574;-68
2022/03/08 01:05:23;;;;;;;22.25;14.13;;;9.90;42.40;;;;;;5123012;28;20051;-67
2022/03/08 01:07:49;;;;;;;20.85;13.90;;;9.90;42.30;;;;;;5123035;28;20024;-66
2022/03/08 01:10:18;;;;;;;22.30;13.63;;;9.90;42.40;;;;;;5122975;28;20257;-67
2022/03/08 01:12:46;;;;;;;21.95;14.07;;;9.90;42.40;;;;;;5122969;28;20020;-67
2022/03/08 01:15:13;;;;;;;22.35;13.55;;;9.90;42.50;;;;;;5122837;28;20023;-66
2022/03/08 01:17:39;;;;;;;21.20;12.82;;;9.90;42.40;;;;;;5122820;28;20028;-67
2022/03/08 01:20:08;;;;;;;21.83;13.38;;;9.90;42.40;;;;;;5122832;27;20257;-67
2022/03/08 01:22:33;;;;;;;22.63;13.65;;;9.90;42.50;;;;;;5122634;28;20200;-68
2022/03/08 01:24:59;;;;;;;19.75;12.60;;;9.90;42.40;;;;;;5122658;28;20095;-67
2022/03/08 01:27:25;;;;;;;21.60;14.55;;;9.90;42.30;;;;;;5122612;28;20351;-67
2022/03/08 01:29:51;;;;;;;22.95;12.85;;;9.90;42.40;;;;;;5122584;28;20024;-66
2022/03/08 01:32:16;;;;;;;19.35;12.93;;;9.80;42.40;;;;;;5120199;28;20051;-67
2022/03/08 01:34:42;;;;;;;23.98;14.18;;;9.80;42.20;;;;;;5122479;28;20054;-66
2022/03/08 01:37:09;;;;;;;22.85;13.45;;;9.80;42.40;;;;;;5122474;28;20030;-67
2022/03/08 01:39:35;;;;;;;18.73;11.75;;;9.80;42.30;;;;;;5122241;28;20156;-67
2022/03/08 01:42:08;;;;;;;17.90;11.38;;;9.80;42.40;;;;;;5122251;28;20339;-66
2022/03/08 01:44:34;;;;;;;18.70;12.15;;;9.80;42.30;;;;;;5122323;28;20020;-67
2022/03/08 01:46:59;;;;;;;19.15;12.60;;;9.80;42.20;;;;;;5122246;28;20084;-67
2022/03/08 01:49:25;;;;;;;25.08;12.20;;;9.80;42.30;;;;;;5122204;28;20031;-67
2022/03/08 01:51:51;;;;;;;19.92;12.68;;;9.80;42.20;;;;;;5122101;28;20034;-67
2022/03/08 01:54:16;;;;;;;21.63;13.90;;;9.80;42.20;;;;;;5122077;28;20312;-66
2022/03/08 01:56:44;;;;;;;18.98;12.48;;;9.80;42.30;;;;;;5122007;28;20043;-66
2022/03/08 01:59:10;;;;;;;23.83;13.07;;;9.80;42.40;;;;;;5121965;28;20224;-66
2022/03/08 02:01:35;;;;;;;26.88;13.27;;;9.80;42.30;;;;;;5121919;28;20023;-67
2022/03/08 02:04:01;;;;;;;21.55;13.35;;;9.80;42.40;;;;;;5121843;28;20084;-67
2022/03/08 02:06:28;;;;;;;20.33;12.57;;;9.70;42.20;;;;;;5121908;28;20045;-66
2022/03/08 02:08:54;;;;;;;18.85;12.25;;;9.70;42.40;;;;;;5121769;28;20027;-68
2022/03/08 02:11:21;;;;;;;17.63;12.02;;;9.70;42.10;;;;;;5121762;28;20031;-67
2022/03/08 02:13:47;;;;;;;18.52;11.88;;;9.70;42.30;;;;;;5121674;28;20020;-66
2022/03/08 02:16:14;;;;;;;18.60;12.43;;;9.70;42.30;;;;;;5121636;28;20026;-66
2022/03/08 02:18:40;;;;;;;17.30;12.15;;;9.70;42.30;;;;;;5121593;28;20027;-66
2022/03/08 02:21:07;;;;;;;20.65;12.57;;;9.70;42.40;;;;;;5121595;28;20047;-67
2022/03/08 02:23:33;;;;;;;17.15;11.80;;;9.70;42.30;;;;;;5121428;28;20078;-68
2022/03/08 02:26:00;;;;;;;20.25;12.02;;;9.70;42.30;;;;;;5121524;28;20085;-67
2022/03/08 02:28:27;;;;;;;17.42;12.02;;;9.70;42.30;;;;;;5121483;28;20034;-66
2022/03/08 02:30:53;;;;;;;19.45;12.98;;;9.70;42.30;;;;;;5121347;28;20012;-67
2022/03/08 02:33:19;;;;;;;19.27;12.45;;;9.70;42.30;;;;;;5121398;28;20019;-68
2022/03/08 02:35:45;;;;;;;19.25;12.35;;;9.70;42.40;;;;;;5121340;28;20266;-66
2022/03/08 02:38:11;;;;;;;19.30;12.13;;;9.70;42.50;;;;;;5121039;28;20063;-67
2022/03/08 02:40:39;;;;;;;19.13;11.48;;;9.70;42.20;;;;;;5121223;28;20019;-67
2022/03/08 02:43:06;;;;;;;18.33;11.60;;;9.70;42.50;;;;;;5120966;28;20027;-68
2022/03/08 02:45:33;;;;;;;18.52;12.65;;;9.60;42.30;;;;;;5120803;28;20035;-67
2022/03/08 02:47:59;;;;;;;18.05;11.70;;;9.70;42.50;;;;;;5121097;28;20020;-66
2022/03/08 02:50:25;;;;;;;20.95;12.45;;;9.60;42.30;;;;;;5121025;28;20031;-66
2022/03/08 02:52:52;;;;;;;18.05;12.00;;;9.60;42.40;;;;;;5120973;28;20027;-66
2022/03/08 02:55:25;;;;;;;19.05;11.93;;;9.60;42.50;;;;;;5121091;28;20095;-68
2022/03/08 02:57:52;;;;;;;17.48;11.90;;;9.60;42.50;;;;;;5120866;28;20328;-67
2022/03/08 03:00:20;;;;;;;17.52;11.15;;;9.60;42.40;;;;;;5120918;28;20030;-66
2022/03/08 03:02:47;;;;;;;19.80;12.60;;;9.60;42.50;;;;;;5120963;28;20217;-68
2022/03/08 03:05:13;;;;;;;20.50;12.57;;;9.60;42.30;;;;;;5119590;28;20007;-68
2022/03/08 03:07:40;;;;;;;17.83;12.73;;;9.60;42.30;;;;;;5120850;28;20083;-67
2022/03/08 03:10:12;;;;;;;18.67;12.43;;;9.50;42.40;;;;;;5120748;28;20016;-68
2022/03/08 03:12:38;;;;;;;18.90;12.23;;;9.60;42.50;;;;;;5120793;28;20057;-68
2022/03/08 03:15:06;;;;;;;18.30;11.25;;;9.60;42.50;;;;;;5120947;28;20074;-66
2022/03/08 03:17:32;;;;;;;17.50;12.00;;;9.60;42.50;;;;;;5120723;28;20007;-67
2022/03/08 03:19:57;;;;;;;20.33;12.80;;;9.60;42.40;;;;;;5120682;28;20334;-66
2022/03/08 03:22:23;;;;;;;20.95;12.20;;;9.50;42.50;;;;;;5120579;28;20034;-66
2022/03/08 03:24:49;;;;;;;23.92;12.75;;;9.50;42.50;;;;;;5120719;28;20031;-67
2022/03/08 03:27:14;;;;;;;18.15;11.45;;;9.50;42.40;;;;;;5120595;28;20250;-66
2022/03/08 03:29:40;;;;;;;16.92;10.80;;;9.50;42.50;;;;;;5120538;28;20027;-67
2022/03/08 03:32:07;;;;;;;19.77;11.80;;;9.50;42.60;;;;;;5120501;28;20024;-67
2022/03/08 03:34:33;;;;;;;17.88;11.10;;;9.50;42.60;;;;;;5120488;28;20113;-67
2022/03/08 03:36:59;;;;;;;15.05;11.20;;;9.50;42.40;;;;;;5120824;28;20024;-67
2022/03/08 03:39:24;;;;;;;18.88;11.48;;;9.50;42.50;;;;;;5120159;28;20111;-66
2022/03/08 03:41:50;;;;;;;17.63;11.45;;;9.50;42.50;;;;;;5120477;28;20320;-66
2022/03/08 03:44:16;;;;;;;16.42;11.38;;;9.50;42.60;;;;;;5120452;28;20090;-66
2022/03/08 03:46:41;;;;;;;16.88;11.85;;;9.50;42.50;;;;;;5120376;28;20212;-67
2022/03/08 03:49:07;;;;;;;16.30;11.90;;;9.50;42.70;;;;;;5120363;28;20015;-67
2022/03/08 03:51:33;;;;;;;18.38;11.70;;;9.50;42.80;;;;;;5120299;28;20020;-67
2022/03/08 03:53:58;;;;;;;16.48;11.00;;;9.50;42.50;;;;;;5120356;28;20090;-68
2022/03/08 03:56:24;;;;;;;15.68;11.07;;;9.50;42.70;;;;;;5122690;28;20201;-66
2022/03/08 03:58:50;;;;;;;18.42;12.32;;;9.50;42.60;;;;;;5124188;28;20050;-67
2022/03/08 04:01:16;;;;;;;20.13;11.23;;;9.50;42.70;;;;;;5124240;28;20024;-67
2022/03/08 04:03:42;;;;;;;18.88;11.63;;;9.50;42.70;;;;;;5124232;28;20052;-67
2022/03/08 04:06:08;;;;;;;15.98;10.48;;;9.50;42.70;;;;;;5124154;28;20061;-67
2022/03/08 04:08:34;;;;;;;18.85;12.13;;;9.40;42.70;;;;;;5124029;28;20027;-66
2022/03/08 04:11:00;;;;;;;17.27;11.75;;;9.50;42.70;;;;;;5124090;28;20032;-66
2022/03/08 04:13:26;;;;;;;17.60;11.57;;;9.50;42.80;;;;;;5124047;28;20511;-66
2022/03/08 04:15:52;;;;;;;18.00;11.18;;;9.40;42.70;;;;;;5123988;28;20027;-66
2022/03/08 04:18:18;;;;;;;18.67;11.55;;;9.40;42.90;;;;;;5123947;28;20015;-67
2022/03/08 04:20:45;;;;;;;21.10;12.13;;;9.40;42.70;;;;;;5123904;28;20034;-67
2022/03/08 04:23:11;;;;;;;18.60;11.50;;;9.40;42.80;;;;;;5123795;28;20050;-67
2022/03/08 04:25:37;;;;;;;16.00;10.82;;;9.40;42.60;;;;;;5123798;28;20019;-67
2022/03/08 04:28:04;;;;;;;16.70;10.77;;;9.40;42.70;;;;;;5123751;28;20030;-67
2022/03/08 04:30:30;;;;;;;17.10;11.02;;;9.40;42.70;;;;;;5123678;28;20046;-65
2022/03/08 04:32:56;;;;;;;17.45;11.68;;;9.40;42.80;;;;;;5122403;28;20039;-66
2022/03/08 04:35:22;;;;;;;16.25;10.65;;;9.40;42.70;;;;;;5123609;28;20020;-68
2022/03/08 04:37:47;;;;;;;15.48;10.98;;;9.40;43.00;;;;;;5123311;28;20058;-67
2022/03/08 04:40:14;;;;;;;16.38;10.93;;;9.40;42.80;;;;;;5122240;28;20082;-67
2022/03/08 04:42:40;;;;;;;18.05;10.48;;;9.40;42.90;;;;;;5123485;28;20020;-66
2022/03/08 04:45:08;;;;;;;19.48;12.10;;;9.40;42.90;;;;;;5123404;28;20083;-66
2022/03/08 04:47:35;;;;;;;17.38;11.43;;;9.40;42.80;;;;;;5123362;28;20083;-67
2022/03/08 04:50:03;;;;;;;18.20;11.57;;;9.30;42.80;;;;;;5123258;28;20029;-67
2022/03/08 04:52:28;;;;;;;18.10;10.85;;;9.30;42.80;;;;;;5123361;28;20043;-67
2022/03/08 04:54:54;;;;;;;15.45;10.43;;;9.40;42.80;;;;;;5123409;28;20046;-67
2022/03/08 04:57:20;;;;;;;15.23;10.40;;;9.40;42.80;;;;;;5123144;28;20024;-67
2022/03/08 04:59:45;;;;;;;16.60;11.32;;;9.30;42.80;;;;;;5123032;28;20032;-67
2022/03/08 05:02:11;;;;;;;18.25;11.30;;;9.30;42.70;;;;;;5121748;28;20023;-67
2022/03/08 05:04:37;;;;;;;16.42;10.95;;;9.30;42.80;;;;;;5123011;28;20043;-67
2022/03/08 05:07:03;;;;;;;16.17;10.88;;;9.30;42.90;;;;;;5122856;28;20084;-68
2022/03/08 05:09:28;;;;;;;16.08;11.18;;;9.30;42.80;;;;;;5122939;28;20060;-68
2022/03/08 05:11:54;;;;;;;17.23;11.13;;;9.30;42.90;;;;;;5121547;28;20025;-67
2022/03/08 05:14:20;;;;;;;16.67;11.32;;;9.30;42.90;;;;;;5122850;28;20059;-66
2022/03/08 05:16:45;;;;;;;16.00;10.40;;;9.30;42.80;;;;;;5122820;28;20023;-68
2022/03/08 05:19:11;;;;;;;15.90;11.10;;;9.30;42.90;;;;;;5122612;28;20023;-68
2022/03/08 05:21:37;;;;;;;17.73;11.95;;;9.30;42.90;;;;;;5122711;28;20027;-66
2022/03/08 05:24:02;;;;;;;18.48;11.07;;;9.30;43.00;;;;;;5122608;28;20062;-66
2022/03/08 05:26:28;;;;;;;20.63;11.02;;;9.30;43.00;;;;;;5121623;28;20012;-67
2022/03/08 05:28:54;;;;;;;18.27;11.30;;;9.30;43.00;;;;;;5122517;28;20343;-67
2022/03/08 05:31:21;;;;;;;16.55;11.55;;;9.30;43.00;;;;;;5122496;28;20060;-66
2022/03/08 05:33:46;;;;;;;15.50;10.80;;;9.30;43.00;;;;;;5122472;28;20034;-68
2022/03/08 05:36:12;;;;;;;17.23;11.75;;;9.30;43.00;;;;;;5122388;28;20019;-67
2022/03/08 05:38:38;;;;;;;16.20;10.30;;;9.30;43.10;;;;;;5122203;28;20040;-67
2022/03/08 05:41:04;;;;;;;16.52;10.38;;;9.30;42.90;;;;;;5122230;28;20069;-67
2022/03/08 05:43:29;;;;;;;18.85;11.70;;;9.30;43.00;;;;;;5122294;28;20105;-66
2022/03/08 05:45:55;;;;;;;18.20;10.82;;;9.30;43.00;;;;;;5122251;28;20216;-67
2022/03/08 05:48:21;;;;;;;16.08;10.40;;;9.30;43.10;;;;;;5122086;28;20093;-67
2022/03/08 05:50:47;;;;;;;15.05;10.73;;;9.30;43.10;;;;;;5122139;28;20231;-67
2022/03/08 05:53:12;;;;;;;18.65;11.90;;;9.30;43.00;;;;;;5122042;28;20053;-66
2022/03/08 05:55:38;;;;;;;15.57;10.75;;;9.30;42.90;;;;;;5122083;28;20216;-67
2022/03/08 05:58:04;;;;;;;19.30;11.10;;;9.30;43.10;;;;;;5121835;28;20043;-67
2022/03/08 06:00:29;;;;;;;16.75;11.30;;;9.30;42.90;;;;;;5121919;28;20079;-66
2022/03/08 06:02:55;;;;;;;15.80;10.55;;;9.30;43.00;;;;;;5121827;28;20024;-67
2022/03/08 06:05:22;;;;;;;17.20;10.50;;;9.30;43.00;;;;;;5121795;28;20141;-67
2022/03/08 06:07:48;;;;;;;17.77;11.15;;;9.30;43.10;;;;;;5121866;28;20018;-68
2022/03/08 06:10:14;;;;;;;17.58;11.35;;;9.30;43.10;;;;;;5121710;28;20035;-67
2022/03/08 06:12:41;;;;;;;18.40;11.10;;;9.30;43.00;;;;;;5121772;28;20064;-67
2022/03/08 06:15:08;;;;;;;21.23;11.35;;;9.30;43.10;;;;;;5121612;28;20019;-67
2022/03/08 06:17:34;;;;;;;17.67;10.85;;;9.30;43.00;;;;;;5121530;28;20256;-67
2022/03/08 06:20:00;;;;;;;18.45;10.60;;;9.30;43.10;;;;;;5121065;28;20204;-66
2022/03/08 06:22:25;;;;;;;16.50;11.40;;;9.30;43.10;;;;;;5121518;28;20034;-67
2022/03/08 06:24:51;;;;;;;15.40;10.65;;;9.30;43.00;;;;;;5121434;28;20024;-67
2022/03/08 06:27:17;;;;;;;15.73;10.23;;;9.30;43.20;;;;;;5121367;28;20011;-67
2022/03/08 06:29:42;;;;;;;17.90;11.63;;;9.30;43.20;;;;;;5121375;28;20024;-67
2022/03/08 06:32:08;;;;;;;17.38;11.48;;;9.30;43.30;;;;;;5121319;28;20038;-67
2022/03/08 06:34:34;;;;;;;16.48;11.52;;;9.30;43.10;;;;;;5121226;28;20112;-67
2022/03/08 06:37:00;;;;;;;16.33;11.15;;;9.30;43.10;;;;;;5121227;28;20023;-66
2022/03/08 06:39:25;;;;;;;17.23;11.57;;;9.30;43.10;;;;;;5121035;28;20110;-66
2022/03/08 06:41:51;;;;;;;18.33;10.63;;;9.30;43.10;;;;;;5121095;28;20027;-67
2022/03/08 06:44:17;;;;;;;17.08;11.23;;;9.30;43.10;;;;;;5119898;28;20015;-67
2022/03/08 06:46:44;;;;;;;18.77;11.68;;;9.30;43.20;;;;;;5121043;28;20043;-67
2022/03/08 06:49:14;;;;;;;18.27;11.25;;;9.30;43.10;;;;;;5121077;28;20024;-67
2022/03/08 06:51:40;;;;;;;17.63;11.05;;;9.30;43.20;;;;;;5121005;28;20035;-66
2022/03/08 06:54:06;;;;;;;17.42;11.02;;;9.30;43.20;;;;;;5120943;28;20031;-67
2022/03/08 06:56:36;;;;;;;17.33;11.02;;;9.40;43.30;;;;;;5120900;28;20211;-68
2022/03/08 06:59:02;;;;;;;15.45;10.00;;;9.40;43.30;;;;;;5120785;28;20035;-67
2022/03/08 07:01:28;;;;;;;19.98;10.82;;;9.40;43.30;;;;;;5120884;28;20020;-67
2022/03/08 07:03:54;;;;;;;16.50;11.68;;;9.40;43.20;;;;;;5120720;28;20019;-67
2022/03/08 07:06:19;;;;;;;22.73;12.48;;;9.50;43.20;;;;;;5120772;28;20011;-66
2022/03/08 07:08:45;;;;;;;15.85;11.02;;;9.40;43.20;;;;;;5120793;28;20027;-66
2022/03/08 07:11:11;;;;;;;17.88;11.95;;;9.40;43.20;;;;;;5120626;28;20035;-67
2022/03/08 07:13:36;;;;;;;16.13;10.95;;;9.50;43.30;;;;;;5120650;28;20031;-66
2022/03/08 07:16:03;;;;;;;15.07;10.70;;;9.50;43.30;;;;;;5120606;28;20027;-67
2022/03/08 07:18:28;;;;;;;18.17;11.00;;;9.50;43.30;;;;;;5120459;28;20369;-66
2022/03/08 07:20:54;;;;;;;15.65;11.63;;;9.60;43.50;;;;;;5120509;28;20028;-67
2022/03/08 07:23:20;;;;;;;17.98;11.80;;;9.60;43.40;;;;;;5120593;28;20023;-66
2022/03/08 07:25:46;;;;;;;20.38;11.27;;;9.60;43.40;;;;;;5120512;28;20336;-67
2022/03/08 07:28:12;;;;;;;17.27;10.80;;;9.70;43.40;;;;;;5120529;28;20034;-68
2022/03/08 07:30:38;;;;;;;14.18;10.73;;;9.70;43.40;;;;;;5121574;28;20024;-67
2022/03/08 07:33:03;;;;;;;17.02;10.55;;;9.70;43.40;;;;;;5124654;28;20086;-67
2022/03/08 07:35:29;;;;;;;16.52;11.57;;;9.70;43.30;;;;;;5124798;28;20032;-67
2022/03/08 07:37:55;;;;;;;18.45;10.88;;;9.80;43.50;;;;;;5124306;28;20097;-67
2022/03/08 07:40:21;;;;;;;16.63;10.30;;;9.80;43.30;;;;;;5124604;28;20036;-67
2022/03/08 07:42:46;;;;;;;15.35;10.55;;;9.80;43.20;;;;;;5124574;28;20264;-67
2022/03/08 07:45:12;;;;;;;18.25;11.25;;;9.80;43.20;;;;;;5124510;28;20189;-67
2022/03/08 07:47:41;;;;;;;18.25;11.60;;;9.90;43.20;;;;;;5124562;28;20023;-68
2022/03/08 07:50:08;;;;;;;17.73;10.93;;;9.90;43.10;;;;;;5124469;28;20057;-66
2022/03/08 07:52:33;;;;;;;14.80;10.65;;;10.00;43.10;;;;;;5124350;28;20024;-67
2022/03/08 07:54:59;;;;;;;16.50;11.48;;;10.00;43.00;;;;;;5124336;28;20378;-67
2022/03/08 07:57:24;;;;;;;18.92;11.38;;;10.00;43.00;;;;;;5124235;28;20236;-66
2022/03/08 07:59:50;;;;;;;17.60;11.00;;;10.00;43.60;;;;;;5124148;28;20327;-66
2022/03/08 08:02:16;;;;;;;18.10;11.65;;;10.00;42.80;;;;;;5124174;28;20403;-67
2022/03/08 08:04:42;;;;;;;15.70;10.60;;;10.10;42.80;;;;;;5124100;28;20090;-67
2022/03/08 08:07:07;;;;;;;16.13;10.52;;;10.10;42.90;;;;;;5124138;28;20308;-68
2022/03/08 08:09:33;;;;;;;15.63;10.88;;;10.10;42.80;;;;;;5123989;28;20023;-66
2022/03/08 08:11:59;;;;;;;16.45;10.95;;;10.10;42.70;;;;;;5124035;28;20110;-68
2022/03/08 08:14:26;;;;;;;17.20;11.30;;;10.20;42.80;;;;;;5123974;28;20051;-67
2022/03/08 08:16:52;;;;;;;19.50;11.50;;;10.20;42.60;;;;;;5123943;28;20091;-66
2022/03/08 08:19:17;;;;;;;15.27;11.13;;;10.30;42.70;;;;;;5123811;28;20016;-67
2022/03/08 08:21:43;;;;;;;16.42;10.77;;;10.30;42.60;;;;;;5123738;28;20011;-67
2022/03/08 08:24:09;;;;;;;15.85;10.82;;;10.30;42.60;;;;;;5123754;28;20098;-66
2022/03/08 08:26:35;;;;;;;19.42;11.63;;;10.30;42.50;;;;;;5123723;28;20031;-66
2022/03/08 08:29:01;;;;;;;16.23;11.10;;;10.30;42.50;;;;;;5123673;28;20050;-67
2022/03/08 08:31:30;;;;;;;16.60;10.40;;;10.40;42.50;;;;;;5123584;28;20028;-67
2022/03/08 08:33:55;;;;;;;17.60;11.48;;;10.40;42.50;;;;;;5123616;28;20028;-66
2022/03/08 08:36:21;;;;;;;16.60;11.68;;;10.40;42.30;;;;;;5123522;28;20062;-67
2022/03/08 08:38:47;;;;;;;15.80;10.23;;;10.40;42.40;;;;;;5123264;27;20043;-67
2022/03/08 08:41:13;;;;;;;16.52;10.55;;;10.50;42.50;;;;;;5122864;28;20092;-66
2022/03/08 08:43:38;;;;;;;17.60;10.25;;;10.50;42.40;;;;;;5123380;28;20015;-67
2022/03/08 08:46:04;;;;;;;15.70;10.57;;;10.60;42.50;;;;;;5123287;28;20035;-67
2022/03/08 08:48:30;;;;;;;16.13;11.55;;;10.50;42.30;;;;;;5123347;28;20051;-66
2022/03/08 08:50:56;;;;;;;14.85;10.27;;;10.50;42.40;;;;;;5123259;28;20020;-67
2022/03/08 08:53:22;;;;;;;14.00;10.15;;;10.60;42.50;;;;;;5123156;28;20023;-67
2022/03/08 08:55:48;;;;;;;13.95;10.05;;;10.60;42.50;;;;;;5123166;28;20065;-68
2022/03/08 08:58:14;;;;;;;15.30;10.75;;;10.60;42.50;;;;;;5122970;28;20578;-68
2022/03/08 09:00:40;;;;;;;14.00;10.20;;;10.60;42.50;;;;;;5123068;28;20027;-66
2022/03/08 09:03:10;;;;;;;17.58;10.60;;;10.60;42.50;;;;;;5123022;28;20030;-67
2022/03/08 09:05:36;;;;;;;15.50;10.77;;;10.70;42.60;;;;;;5122965;28;20024;-66
2022/03/08 09:08:03;;;;;;;16.80;10.10;;;10.70;42.50;;;;;;5122866;28;20019;-68
2022/03/08 09:10:28;;;;;;;15.40;10.35;;;10.70;42.40;;;;;;5122938;28;20207;-66
2022/03/08 09:12:54;;;;;;;16.27;9.70;;;10.80;42.50;;;;;;5122728;28;20051;-67
2022/03/08 09:15:21;;;;;;;14.73;9.77;;;10.80;42.50;;;;;;5122803;28;20019;-66
2022/03/08 09:17:47;;;;;;;14.23;9.55;;;10.80;42.50;;;;;;5122646;28;20019;-67
2022/03/08 09:20:13;;;;;;;17.77;10.98;;;10.80;42.40;;;;;;5122620;28;20007;-67
2022/03/08 09:22:40;;;;;;;17.08;10.57;;;10.80;42.40;;;;;;5122647;28;20020;-67
2022/03/08 09:25:07;;;;;;;13.60;9.88;;;10.90;42.40;;;;;;5122578;28;20230;-67
2022/03/08 09:27:34;;;;;;;13.73;9.32;;;10.90;42.40;;;;;;5122477;28;20080;-67
2022/03/08 09:30:00;;;;;;;13.02;8.90;;;10.90;42.40;;;;;;5122505;28;20024;-67
2022/03/08 09:32:26;;;;;;;14.40;10.13;;;10.90;42.50;;;;;;5122462;28;20529;-67
2022/03/08 09:34:52;;;;;;;13.32;9.88;;;11.00;42.50;;;;;;5122419;28;20096;-68
2022/03/08 09:37:17;;;;;;;12.80;9.60;;;11.00;42.50;;;;;;5122362;28;20039;-67
2022/03/08 09:39:43;;;;;;;15.20;9.43;;;11.00;42.50;;;;;;5122112;28;20106;-67
2022/03/08 09:42:10;;;;;;;13.18;9.73;;;11.00;42.50;;;;;;5122257;28;20062;-67
2022/03/08 09:44:36;;;;;;;14.50;9.57;;;11.00;42.50;;;;;;5122221;28;20371;-68
2022/03/08 09:47:03;;;;;;;13.98;9.00;;;11.00;42.40;;;;;;5122103;28;20023;-67
2022/03/08 09:49:29;;;;;;;13.20;8.93;;;11.00;42.50;;;;;;5122175;28;20019;-68
2022/03/08 09:51:55;;;;;;;14.27;10.15;;;11.10;42.60;;;;;;5122030;28;20250;-66
2022/03/08 09:54:21;;;;;;;14.95;9.32;;;11.00;42.40;;;;;;5121156;28;20087;-67
2022/03/08 09:56:47;;;;;;;12.52;9.07;;;11.10;42.50;;;;;;5121989;28;20035;-68
2022/03/08 09:59:20;;;;;;;13.73;9.35;;;11.10;42.50;;;;;;5121806;28;20023;-66
2022/03/08 10:01:47;;;;;;;12.27;9.18;;;11.20;42.50;;;;;;5121879;28;20047;-68
2022/03/08 10:04:17;;;;;;;12.82;9.73;;;11.10;42.40;;;;;;5121765;28;20241;-67
2022/03/08 10:06:46;;;;;;;13.90;9.70;;;11.20;42.50;;;;;;5121715;28;20042;-66
2022/03/08 10:09:17;;;;;;;12.65;8.95;;;11.20;42.50;;;;;;5121728;28;20015;-67
2022/03/08 10:11:43;;;;;;;16.15;10.40;;;11.20;42.60;;;;;;5121631;28;20261;-66
2022/03/08 10:14:13;;;;;;;13.38;9.43;;;11.20;42.60;;;;;;5121630;28;20019;-67
2022/03/08 10:16:42;;;;;;;15.18;9.73;;;11.20;42.60;;;;;;5121612;28;20015;-66
2022/03/08 10:19:10;;;;;;;14.77;8.93;;;11.30;43.20;;;;;;5121467;28;20020;-67
2022/03/08 10:21:37;;;;;;;15.93;9.90;;;11.30;42.60;;;;;;5121598;28;20229;-68
2022/03/08 10:24:03;;;;;;;13.70;9.05;;;11.30;42.50;;;;;;5121346;28;20012;-67
2022/03/08 10:26:30;;;;;;;11.25;8.23;;;11.40;42.50;;;;;;5121412;27;20046;-67
2022/03/08 10:28:57;;;;;;;15.48;10.43;;;11.40;42.40;;;;;;5120037;28;20031;-66
2022/03/08 10:31:23;;;;;;;14.57;9.40;;;11.40;42.40;;;;;;5121310;28;20242;-68
2022/03/08 10:33:50;;;;;;;17.50;10.07;;;11.40;42.40;;;;;;5121289;28;20019;-68
2022/03/08 10:36:22;;;;;;;13.32;9.02;;;11.40;42.30;;;;;;5121155;28;20035;-66
2022/03/08 10:39:07;;;;;;;12.30;9.32;;;11.50;42.30;;;;;;5121013;28;20047;-67
2022/03/08 10:41:58;;;;;;;13.45;9.32;;;11.50;42.20;;;;;;5121267;27;20063;-66
2022/03/08 10:44:50;;;;;;;15.32;9.48;;;11.60;42.30;;;;;;5120651;28;20039;-66
2022/03/08 10:47:18;;;;;;;11.20;8.57;;;11.50;42.20;;;;;;5117524;28;20440;-67
2022/03/08 10:49:51;;;;;;;13.13;9.30;;;11.50;42.20;;;;;;5120896;28;20091;-66
2022/03/08 10:52:29;;;;;;;11.93;8.77;;;11.60;42.30;;;;;;5119950;28;20090;-66
2022/03/08 10:55:07;;;;;;;10.82;8.25;;;11.60;42.30;;;;;;5119607;28;20537;-65
2022/03/08 10:57:34;;;;;;;12.35;8.32;;;11.60;42.30;;;;;;5120830;28;20023;-67
2022/03/08 11:00:00;;;;;;;13.13;9.20;;;11.60;42.20;;;;;;5120790;28;20051;-65
2022/03/08 11:02:25;;;;;;;12.60;8.60;;;11.70;42.30;;;;;;5119542;28;20020;-67
2022/03/08 11:05:10;;;;;;;12.60;8.45;;;11.70;42.20;;;;;;5120561;28;20069;-67
2022/03/08 11:07:37;;;;;;;11.77;8.13;;;11.70;42.30;;;;;;5120751;28;20019;-66
2022/03/08 11:10:04;;;;;;;11.02;8.95;;;11.70;42.10;;;;;;5120501;28;20051;-67
2022/03/08 11:12:30;;;;;;;11.98;8.55;;;11.70;42.20;;;;;;5120555;28;20278;-67
2022/03/08 11:14:55;;;;;;;11.85;8.40;;;11.70;42.20;;;;;;5119322;28;20024;-66
2022/03/08 11:17:23;;;;;;;11.63;8.75;;;11.70;42.10;;;;;;5120596;28;20347;-66
2022/03/08 11:19:50;;;;;;;10.85;7.82;;;11.80;42.30;;;;;;5120519;28;20032;-67
2022/03/08 11:22:19;;;;;;;11.48;7.82;;;11.80;42.20;;;;;;5119291;28;20227;-67
2022/03/08 11:24:48;;;;;;;13.43;8.73;;;11.80;42.10;;;;;;5120511;28;20016;-66
2022/03/08 11:27:14;;;;;;;;;;;11.80;42.10;;;;;;5120907;28;20019;-67
2022/03/08 11:29:41;;;;;;;11.77;8.32;;;11.80;42.20;;;;;;5120515;28;19907;-66
2022/03/08 11:32:13;;;;;;;9.60;7.80;;;11.80;42.10;;;;;;5120411;28;20032;-66
2022/03/08 11:34:44;;;;;;;10.77;8.52;;;11.90;42.20;;;;;;5120474;28;20020;-68
2022/03/08 11:37:19;;;;;;;14.70;8.82;;;11.90;42.20;;;;;;5120466;28;20224;-67
2022/03/08 11:40:08;;;;;;;16.60;9.00;;;11.90;42.10;;;;;;5120230;28;20040;-66
2022/03/08 11:42:36;;;;;;;10.70;8.13;;;11.90;42.20;;;;;;5120368;28;20028;-68
2022/03/08 11:45:12;;;;;;;10.32;8.07;;;11.90;42.30;;;;;;5120387;28;20224;-66
2022/03/08 11:47:44;;;;;;;12.38;8.77;;;11.90;42.10;;;;;;5120387;28;20022;-66
2022/03/08 11:50:35;;;;;;;10.70;7.68;;;11.90;42.30;;;;;;5120351;28;20030;-66
2022/03/08 11:53:06;;;;;;;10.77;7.57;;;11.90;42.20;;;;;;5120242;28;20027;-66
2022/03/08 11:55:44;;;;;;;10.80;7.53;;;11.90;42.20;;;;;;5120222;28;20023;-67
2022/03/08 11:58:16;;;;;;;10.70;7.30;;;11.90;42.30;;;;;;5120180;28;20023;-67
2022/03/08 12:00:48;;;;;;;11.25;8.35;;;11.90;42.30;;;;;;5120170;28;20027;-66
2022/03/08 12:03:23;;;;;;;12.35;8.18;;;11.90;42.30;;;;;;5118818;28;20267;-67
2022/03/08 12:05:55;;;;;;;12.20;8.30;;;11.90;42.40;;;;;;5120120;28;20200;-67
2022/03/08 12:08:30;;;;;;;9.38;7.15;;;11.90;42.20;;;;;;5120144;28;20328;-66
2022/03/08 12:11:07;;;;;;;10.88;7.85;;;11.90;42.30;;;;;;5120121;28;20031;-67
2022/03/08 12:14:00;;;;;;;9.50;7.25;;;11.90;42.50;;;;;;5120173;28;20027;-67
2022/03/08 12:16:27;;;;;;;12.48;7.80;;;11.90;42.50;;;;;;5120992;28;20023;-67
2022/03/08 12:18:55;;;;;;;12.90;7.50;;;11.90;42.40;;;;;;5124233;28;20046;-66
2022/03/08 12:21:20;;;;;;;12.03;8.03;;;11.90;42.50;;;;;;5124134;28;20019;-67
2022/03/08 12:23:52;;;;;;;12.30;8.52;;;11.90;42.50;;;;;;5124025;28;20055;-67
2022/03/08 12:26:38;;;;;;;11.25;7.47;;;11.90;42.60;;;;;;5123911;28;20315;-67
2022/03/08 12:29:36;;;;;;;11.77;7.70;;;11.90;42.50;;;;;;5123807;28;20095;-66
2022/03/08 12:32:03;;;;;;;11.23;7.78;;;11.90;42.50;;;;;;5123820;28;20024;-66
2022/03/08 12:34:40;;;;;;;11.05;7.53;;;11.90;42.50;;;;;;5122478;28;20031;-67
2022/03/08 12:37:14;;;;;;;10.38;7.47;;;11.90;42.60;;;;;;5123733;28;20031;-67